sensor_id;sensor_type;location;lat;lon;timestamp;temperature;humidity
56374;DHT22;58212;47.034;7.376;2023-03-23T00:01:04;11.80;99.90
56374;DHT22;58212;47.034;7.376;2023-03-23T00:03:32;11.80;99.90
56374;DHT22;58212;47.034;7.376;2023-03-23T00:05:59;11.80;99.90
56374;DHT22;58212;47.034;7.376;2023-03-23T00:08:31;11.80;99.90
56374;DHT22;58212;47.034;7.376;2023-03-23T00:10:59;11.80;99.90
56374;DHT22;58212;47.034;7.376;2023-03-23T00:13:28;11.80;99.90
56374;DHT22;58212;47.034;7.376;2023-03-23T00:15:56;11.80;99.90
56374;DHT22;58212;47.034;7.376;2023-03-23T00:18:24;11.90;99.90
56374;DHT22;58212;47.034;7.376;2023-03-23T00:20:52;11.90;99.90
56374;DHT22;58212;47.034;7.376;2023-03-23T00:23:21;12.00;99.90
56374;DHT22;58212;47.034;7.376;2023-03-23T00:25:49;12.00;99.90
56374;DHT22;58212;47.034;7.376;2023-03-23T00:28:20;12.00;99.90
56374;DHT22;58212;47.034;7.376;2023-03-23T00:31:00;12.00;99.90
56374;DHT22;58212;47.034;7.376;2023-03-23T00:33:29;12.00;99.90
56374;DHT22;58212;47.034;7.376;2023-03-23T00:36:00;11.90;99.90
56374;DHT22;58212;47.034;7.376;2023-03-23T00:38:27;12.00;99.90
56374;DHT22;58212;47.034;7.376;2023-03-23T00:40:54;11.90;99.90
56374;DHT22;58212;47.034;7.376;2023-03-23T00:43:23;11.90;99.90
56374;DHT22;58212;47.034;7.376;2023-03-23T00:45:55;11.80;99.90
56374;DHT22;58212;47.034;7.376;2023-03-23T00:48:24;11.80;99.90
56374;DHT22;58212;47.034;7.376;2023-03-23T00:50:51;11.70;99.90
56374;DHT22;58212;47.034;7.376;2023-03-23T00:53:20;11.60;99.90
56374;DHT22;58212;47.034;7.376;2023-03-23T00:55:48;11.70;99.90
56374;DHT22;58212;47.034;7.376;2023-03-23T00:58:17;11.60;99.90
56374;DHT22;58212;47.034;7.376;2023-03-23T01:00:44;11.60;99.90
56374;DHT22;58212;47.034;7.376;2023-03-23T01:03:12;11.70;99.90
56374;DHT22;58212;47.034;7.376;2023-03-23T01:05:45;11.70;99.90
56374;DHT22;58212;47.034;7.376;2023-03-23T01:08:39;11.80;99.90
56374;DHT22;58212;47.034;7.376;2023-03-23T01:11:12;11.80;99.90
56374;DHT22;58212;47.034;7.376;2023-03-23T01:13:40;11.70;99.90
56374;DHT22;58212;47.034;7.376;2023-03-23T01:16:08;11.80;99.90
56374;DHT22;58212;47.034;7.376;2023-03-23T01:18:35;11.80;99.90
56374;DHT22;58212;47.034;7.376;2023-03-23T01:21:08;11.90;99.90
56374;DHT22;58212;47.034;7.376;2023-03-23T01:23:37;11.90;99.90
56374;DHT22;58212;47.034;7.376;2023-03-23T01:26:05;11.80;99.90
56374;DHT22;58212;47.034;7.376;2023-03-23T01:28:33;11.80;99.90
56374;DHT22;58212;47.034;7.376;2023-03-23T01:31:01;11.90;99.90
56374;DHT22;58212;47.034;7.376;2023-03-23T01:33:30;11.90;99.90
56374;DHT22;58212;47.034;7.376;2023-03-23T01:35:57;11.90;99.90
56374;DHT22;58212;47.034;7.376;2023-03-23T01:38:25;11.70;99.90
56374;DHT22;58212;47.034;7.376;2023-03-23T01:40:52;11.60;99.90
56374;DHT22;58212;47.034;7.376;2023-03-23T01:43:19;11.70;99.90
56374;DHT22;58212;47.034;7.376;2023-03-23T01:45:47;11.90;99.90
56374;DHT22;58212;47.034;7.376;2023-03-23T01:48:18;12.00;99.90
56374;DHT22;58212;47.034;7.376;2023-03-23T01:50:53;11.90;99.90
56374;DHT22;58212;47.034;7.376;2023-03-23T01:53:27;11.90;99.90
56374;DHT22;58212;47.034;7.376;2023-03-23T01:55:57;11.90;99.90
56374;DHT22;58212;47.034;7.376;2023-03-23T01:58:29;12.10;99.90
56374;DHT22;58212;47.034;7.376;2023-03-23T02:00:59;12.20;99.90
56374;DHT22;58212;47.034;7.376;2023-03-23T02:03:28;12.10;99.90
56374;DHT22;58212;47.034;7.376;2023-03-23T02:05:57;12.10;99.90
56374;DHT22;58212;47.034;7.376;2023-03-23T02:08:37;12.00;99.90
56374;DHT22;58212;47.034;7.376;2023-03-23T02:11:13;12.20;99.90
56374;DHT22;58212;47.034;7.376;2023-03-23T02:13:41;12.20;99.90
56374;DHT22;58212;47.034;7.376;2023-03-23T02:16:15;12.10;99.90
56374;DHT22;58212;47.034;7.376;2023-03-23T02:18:53;11.90;99.90
56374;DHT22;58212;47.034;7.376;2023-03-23T02:21:45;11.80;99.90
56374;DHT22;58212;47.034;7.376;2023-03-23T02:27:50;11.90;99.90
56374;DHT22;58212;47.034;7.376;2023-03-23T02:30:37;11.80;99.90
56374;DHT22;58212;47.034;7.376;2023-03-23T02:33:33;11.80;99.90
56374;DHT22;58212;47.034;7.376;2023-03-23T02:36:30;11.80;99.90
56374;DHT22;58212;47.034;7.376;2023-03-23T02:39:26;11.80;99.90
56374;DHT22;58212;47.034;7.376;2023-03-23T02:42:00;11.80;99.90
56374;DHT22;58212;47.034;7.376;2023-03-23T02:44:30;11.80;99.90
56374;DHT22;58212;47.034;7.376;2023-03-23T02:47:00;11.80;99.90
56374;DHT22;58212;47.034;7.376;2023-03-23T02:49:31;11.80;99.90
56374;DHT22;58212;47.034;7.376;2023-03-23T02:51:59;11.80;99.90
56374;DHT22;58212;47.034;7.376;2023-03-23T02:54:28;11.70;99.90
56374;DHT22;58212;47.034;7.376;2023-03-23T02:56:57;11.70;99.90
56374;DHT22;58212;47.034;7.376;2023-03-23T02:59:28;11.60;99.90
56374;DHT22;58212;47.034;7.376;2023-03-23T03:02:03;11.70;99.90
56374;DHT22;58212;47.034;7.376;2023-03-23T03:04:34;11.70;99.90
56374;DHT22;58212;47.034;7.376;2023-03-23T03:09:52;11.60;99.90
56374;DHT22;58212;47.034;7.376;2023-03-23T03:12:29;11.50;99.90
56374;DHT22;58212;47.034;7.376;2023-03-23T03:15:05;11.40;99.90
56374;DHT22;58212;47.034;7.376;2023-03-23T03:17:36;11.20;99.90
56374;DHT22;58212;47.034;7.376;2023-03-23T03:20:09;11.20;99.90
56374;DHT22;58212;47.034;7.376;2023-03-23T03:22:39;11.30;99.90
56374;DHT22;58212;47.034;7.376;2023-03-23T03:25:08;11.40;99.90
56374;DHT22;58212;47.034;7.376;2023-03-23T03:27:39;11.30;99.90
56374;DHT22;58212;47.034;7.376;2023-03-23T03:30:20;11.40;99.90
56374;DHT22;58212;47.034;7.376;2023-03-23T03:32:51;11.50;99.90
56374;DHT22;58212;47.034;7.376;2023-03-23T03:35:23;11.50;99.90
56374;DHT22;58212;47.034;7.376;2023-03-23T03:37:52;11.50;99.90
56374;DHT22;58212;47.034;7.376;2023-03-23T03:40:21;11.50;99.90
56374;DHT22;58212;47.034;7.376;2023-03-23T03:42:50;11.50;99.90
56374;DHT22;58212;47.034;7.376;2023-03-23T03:45:18;11.50;99.90
56374;DHT22;58212;47.034;7.376;2023-03-23T03:47:45;11.40;99.90
56374;DHT22;58212;47.034;7.376;2023-03-23T03:50:12;11.50;99.90
56374;DHT22;58212;47.034;7.376;2023-03-23T03:52:41;11.60;99.90
56374;DHT22;58212;47.034;7.376;2023-03-23T03:55:09;11.60;99.90
56374;DHT22;58212;47.034;7.376;2023-03-23T03:57:39;11.60;99.90
56374;DHT22;58212;47.034;7.376;2023-03-23T04:00:25;11.50;99.90
56374;DHT22;58212;47.034;7.376;2023-03-23T04:02:52;11.50;99.90
56374;DHT22;58212;47.034;7.376;2023-03-23T04:05:56;11.50;99.90
56374;DHT22;58212;47.034;7.376;2023-03-23T04:08:26;11.60;99.90
56374;DHT22;58212;47.034;7.376;2023-03-23T04:10:53;11.50;99.90
56374;DHT22;58212;47.034;7.376;2023-03-23T04:13:45;11.40;99.90
56374;DHT22;58212;47.034;7.376;2023-03-23T04:16:19;11.50;99.90
56374;DHT22;58212;47.034;7.376;2023-03-23T04:18:50;11.40;99.90
56374;DHT22;58212;47.034;7.376;2023-03-23T04:21:17;11.30;99.90
56374;DHT22;58212;47.034;7.376;2023-03-23T04:23:49;11.40;99.90
56374;DHT22;58212;47.034;7.376;2023-03-23T04:26:16;11.40;99.90
56374;DHT22;58212;47.034;7.376;2023-03-23T04:28:47;11.30;99.90
56374;DHT22;58212;47.034;7.376;2023-03-23T04:31:39;11.10;99.90
56374;DHT22;58212;47.034;7.376;2023-03-23T04:34:22;11.10;99.90
56374;DHT22;58212;47.034;7.376;2023-03-23T04:36:52;11.20;99.90
56374;DHT22;58212;47.034;7.376;2023-03-23T04:39:24;11.20;99.90
56374;DHT22;58212;47.034;7.376;2023-03-23T04:41:56;11.20;99.90
56374;DHT22;58212;47.034;7.376;2023-03-23T04:45:00;11.30;99.90
56374;DHT22;58212;47.034;7.376;2023-03-23T04:47:37;11.20;99.90
56374;DHT22;58212;47.034;7.376;2023-03-23T04:50:15;11.20;99.90
56374;DHT22;58212;47.034;7.376;2023-03-23T04:52:45;11.30;99.90
56374;DHT22;58212;47.034;7.376;2023-03-23T04:55:15;11.40;99.90
56374;DHT22;58212;47.034;7.376;2023-03-23T04:57:48;11.40;99.90
56374;DHT22;58212;47.034;7.376;2023-03-23T05:00:36;11.50;99.90
56374;DHT22;58212;47.034;7.376;2023-03-23T05:03:04;11.10;99.90
56374;DHT22;58212;47.034;7.376;2023-03-23T05:05:34;11.10;99.90
56374;DHT22;58212;47.034;7.376;2023-03-23T05:08:06;11.00;99.90
56374;DHT22;58212;47.034;7.376;2023-03-23T05:10:41;11.10;99.90
56374;DHT22;58212;47.034;7.376;2023-03-23T05:13:12;11.00;99.90
56374;DHT22;58212;47.034;7.376;2023-03-23T05:15:41;11.10;99.90
56374;DHT22;58212;47.034;7.376;2023-03-23T05:18:08;11.10;99.90
56374;DHT22;58212;47.034;7.376;2023-03-23T05:20:37;11.10;99.90
56374;DHT22;58212;47.034;7.376;2023-03-23T05:23:10;11.10;99.90
56374;DHT22;58212;47.034;7.376;2023-03-23T05:25:52;11.10;99.90
56374;DHT22;58212;47.034;7.376;2023-03-23T05:28:20;11.00;99.90
56374;DHT22;58212;47.034;7.376;2023-03-23T05:31:10;11.10;99.90
56374;DHT22;58212;47.034;7.376;2023-03-23T05:33:40;11.10;99.90
56374;DHT22;58212;47.034;7.376;2023-03-23T05:36:29;11.10;99.90
56374;DHT22;58212;47.034;7.376;2023-03-23T05:39:11;11.20;99.90
56374;DHT22;58212;47.034;7.376;2023-03-23T05:41:59;11.20;99.90
56374;DHT22;58212;47.034;7.376;2023-03-23T05:44:38;11.20;99.90
56374;DHT22;58212;47.034;7.376;2023-03-23T05:47:05;11.20;99.90
56374;DHT22;58212;47.034;7.376;2023-03-23T05:49:34;11.20;99.90
56374;DHT22;58212;47.034;7.376;2023-03-23T05:52:02;11.20;99.90
56374;DHT22;58212;47.034;7.376;2023-03-23T05:54:29;11.10;99.90
56374;DHT22;58212;47.034;7.376;2023-03-23T05:56:56;11.10;99.90
56374;DHT22;58212;47.034;7.376;2023-03-23T05:59:48;11.20;99.90
56374;DHT22;58212;47.034;7.376;2023-03-23T06:02:21;11.40;99.90
56374;DHT22;58212;47.034;7.376;2023-03-23T06:04:49;11.50;99.90
56374;DHT22;58212;47.034;7.376;2023-03-23T06:07:22;11.50;99.90
56374;DHT22;58212;47.034;7.376;2023-03-23T06:10:14;11.50;99.90
56374;DHT22;58212;47.034;7.376;2023-03-23T06:12:53;11.60;99.90
56374;DHT22;58212;47.034;7.376;2023-03-23T06:15:33;11.80;99.90
56374;DHT22;58212;47.034;7.376;2023-03-23T06:18:06;11.80;99.90
56374;DHT22;58212;47.034;7.376;2023-03-23T06:20:43;11.90;99.90
56374;DHT22;58212;47.034;7.376;2023-03-23T06:23:24;12.10;99.90
56374;DHT22;58212;47.034;7.376;2023-03-23T06:25:54;12.20;99.90
56374;DHT22;58212;47.034;7.376;2023-03-23T06:28:23;12.20;99.90
56374;DHT22;58212;47.034;7.376;2023-03-23T06:30:51;12.30;99.90
56374;DHT22;58212;47.034;7.376;2023-03-23T06:33:19;12.30;99.90
56374;DHT22;58212;47.034;7.376;2023-03-23T06:36:11;12.30;99.90
56374;DHT22;58212;47.034;7.376;2023-03-23T06:38:46;12.30;99.90
56374;DHT22;58212;47.034;7.376;2023-03-23T06:41:19;12.40;99.90
56374;DHT22;58212;47.034;7.376;2023-03-23T06:43:46;12.60;99.90
56374;DHT22;58212;47.034;7.376;2023-03-23T06:46:18;12.70;99.90
56374;DHT22;58212;47.034;7.376;2023-03-23T06:48:54;12.80;99.90
56374;DHT22;58212;47.034;7.376;2023-03-23T06:51:34;12.80;99.90
56374;DHT22;58212;47.034;7.376;2023-03-23T06:54:02;12.60;99.90
56374;DHT22;58212;47.034;7.376;2023-03-23T06:56:33;12.50;99.90
56374;DHT22;58212;47.034;7.376;2023-03-23T06:59:04;12.30;99.90
56374;DHT22;58212;47.034;7.376;2023-03-23T07:01:32;12.10;99.90
56374;DHT22;58212;47.034;7.376;2023-03-23T07:04:00;12.10;99.90
56374;DHT22;58212;47.034;7.376;2023-03-23T07:06:38;12.10;99.90
56374;DHT22;58212;47.034;7.376;2023-03-23T07:09:08;12.10;99.90
56374;DHT22;58212;47.034;7.376;2023-03-23T07:11:34;12.20;99.90
56374;DHT22;58212;47.034;7.376;2023-03-23T07:14:08;12.30;99.90
56374;DHT22;58212;47.034;7.376;2023-03-23T07:16:43;12.40;99.90
56374;DHT22;58212;47.034;7.376;2023-03-23T07:19:10;12.50;99.90
56374;DHT22;58212;47.034;7.376;2023-03-23T07:21:38;12.50;99.90
56374;DHT22;58212;47.034;7.376;2023-03-23T07:24:06;12.50;99.90
56374;DHT22;58212;47.034;7.376;2023-03-23T07:26:48;12.60;99.90
56374;DHT22;58212;47.034;7.376;2023-03-23T07:29:40;12.50;99.90
56374;DHT22;58212;47.034;7.376;2023-03-23T07:32:16;12.60;99.90
56374;DHT22;58212;47.034;7.376;2023-03-23T07:34:43;12.70;99.90
56374;DHT22;58212;47.034;7.376;2023-03-23T07:37:23;12.50;99.90
56374;DHT22;58212;47.034;7.376;2023-03-23T07:39:52;12.60;99.90
56374;DHT22;58212;47.034;7.376;2023-03-23T07:42:20;12.50;99.90
56374;DHT22;58212;47.034;7.376;2023-03-23T07:44:54;12.50;99.90
56374;DHT22;58212;47.034;7.376;2023-03-23T07:47:23;12.60;99.90
56374;DHT22;58212;47.034;7.376;2023-03-23T07:49:50;12.70;99.90
56374;DHT22;58212;47.034;7.376;2023-03-23T07:52:39;12.80;99.90
56374;DHT22;58212;47.034;7.376;2023-03-23T07:55:09;12.80;99.90
56374;DHT22;58212;47.034;7.376;2023-03-23T07:58:00;13.00;99.90
56374;DHT22;58212;47.034;7.376;2023-03-23T08:00:28;13.10;99.90
56374;DHT22;58212;47.034;7.376;2023-03-23T08:02:58;13.10;99.90
56374;DHT22;58212;47.034;7.376;2023-03-23T08:05:36;13.00;99.90
56374;DHT22;58212;47.034;7.376;2023-03-23T08:08:26;13.00;99.90
56374;DHT22;58212;47.034;7.376;2023-03-23T08:11:29;13.10;99.90
56374;DHT22;58212;47.034;7.376;2023-03-23T08:14:18;13.10;99.90
56374;DHT22;58212;47.034;7.376;2023-03-23T08:17:06;13.30;99.90
56374;DHT22;58212;47.034;7.376;2023-03-23T08:23:46;13.40;99.90
56374;DHT22;58212;47.034;7.376;2023-03-23T08:26:33;13.40;99.90
56374;DHT22;58212;47.034;7.376;2023-03-23T08:29:24;13.40;99.90
56374;DHT22;58212;47.034;7.376;2023-03-23T08:32:30;13.50;99.90
56374;DHT22;58212;47.034;7.376;2023-03-23T08:35:15;13.30;99.90
56374;DHT22;58212;47.034;7.376;2023-03-23T08:38:07;13.20;99.90
56374;DHT22;58212;47.034;7.376;2023-03-23T08:40:58;13.30;99.90
56374;DHT22;58212;47.034;7.376;2023-03-23T08:43:36;13.60;99.90
56374;DHT22;58212;47.034;7.376;2023-03-23T08:46:26;13.70;99.90
56374;DHT22;58212;47.034;7.376;2023-03-23T08:49:13;13.80;99.90
56374;DHT22;58212;47.034;7.376;2023-03-23T08:51:59;13.80;99.90
56374;DHT22;58212;47.034;7.376;2023-03-23T08:54:48;13.80;99.90
56374;DHT22;58212;47.034;7.376;2023-03-23T08:57:29;13.80;99.90
56374;DHT22;58212;47.034;7.376;2023-03-23T09:00:15;13.90;99.90
56374;DHT22;58212;47.034;7.376;2023-03-23T09:03:08;14.20;99.90
56374;DHT22;58212;47.034;7.376;2023-03-23T09:05:50;14.50;99.90
56374;DHT22;58212;47.034;7.376;2023-03-23T09:08:23;14.80;99.90
56374;DHT22;58212;47.034;7.376;2023-03-23T09:10:50;15.00;99.90
56374;DHT22;58212;47.034;7.376;2023-03-23T09:13:19;15.20;99.90
56374;DHT22;58212;47.034;7.376;2023-03-23T09:15:46;15.40;99.90
56374;DHT22;58212;47.034;7.376;2023-03-23T09:18:15;15.60;99.90
56374;DHT22;58212;47.034;7.376;2023-03-23T09:20:42;15.70;99.90
56374;DHT22;58212;47.034;7.376;2023-03-23T09:23:09;15.80;99.90
56374;DHT22;58212;47.034;7.376;2023-03-23T09:25:38;16.10;99.90
56374;DHT22;58212;47.034;7.376;2023-03-23T09:28:06;16.20;99.90
56374;DHT22;58212;47.034;7.376;2023-03-23T09:30:36;16.50;99.90
56374;DHT22;58212;47.034;7.376;2023-03-23T09:33:04;16.70;99.90
56374;DHT22;58212;47.034;7.376;2023-03-23T09:35:34;16.60;99.90
56374;DHT22;58212;47.034;7.376;2023-03-23T09:38:07;16.60;99.90
56374;DHT22;58212;47.034;7.376;2023-03-23T09:40:43;16.60;99.90
56374;DHT22;58212;47.034;7.376;2023-03-23T09:43:50;16.60;99.90
56374;DHT22;58212;47.034;7.376;2023-03-23T09:46:30;16.60;99.90
56374;DHT22;58212;47.034;7.376;2023-03-23T09:49:02;16.90;99.90
56374;DHT22;58212;47.034;7.376;2023-03-23T09:51:41;17.00;99.90
56374;DHT22;58212;47.034;7.376;2023-03-23T09:54:14;16.90;99.90
56374;DHT22;58212;47.034;7.376;2023-03-23T09:56:44;17.10;99.90
56374;DHT22;58212;47.034;7.376;2023-03-23T09:59:20;17.20;99.90
56374;DHT22;58212;47.034;7.376;2023-03-23T10:01:55;17.30;99.90
56374;DHT22;58212;47.034;7.376;2023-03-23T10:04:31;17.20;99.90
56374;DHT22;58212;47.034;7.376;2023-03-23T10:07:12;17.00;99.90
56374;DHT22;58212;47.034;7.376;2023-03-23T10:09:40;16.90;99.90
56374;DHT22;58212;47.034;7.376;2023-03-23T10:12:18;16.90;99.90
56374;DHT22;58212;47.034;7.376;2023-03-23T10:15:01;17.00;99.90
56374;DHT22;58212;47.034;7.376;2023-03-23T10:17:57;17.00;99.90
56374;DHT22;58212;47.034;7.376;2023-03-23T10:20:54;16.90;99.90
56374;DHT22;58212;47.034;7.376;2023-03-23T10:23:52;16.80;99.90
56374;DHT22;58212;47.034;7.376;2023-03-23T10:27:02;16.50;99.90
56374;DHT22;58212;47.034;7.376;2023-03-23T10:29:36;16.50;99.90
56374;DHT22;58212;47.034;7.376;2023-03-23T10:32:09;16.50;99.90
56374;DHT22;58212;47.034;7.376;2023-03-23T10:34:44;16.50;99.90
56374;DHT22;58212;47.034;7.376;2023-03-23T10:37:15;16.60;99.90
56374;DHT22;58212;47.034;7.376;2023-03-23T10:39:48;16.70;99.90
56374;DHT22;58212;47.034;7.376;2023-03-23T10:42:28;16.80;99.90
56374;DHT22;58212;47.034;7.376;2023-03-23T10:44:56;16.90;99.90
56374;DHT22;58212;47.034;7.376;2023-03-23T10:47:24;16.90;99.90
56374;DHT22;58212;47.034;7.376;2023-03-23T10:49:56;17.10;99.90
56374;DHT22;58212;47.034;7.376;2023-03-23T10:52:28;17.40;99.90
56374;DHT22;58212;47.034;7.376;2023-03-23T10:55:02;17.30;99.90
56374;DHT22;58212;47.034;7.376;2023-03-23T10:57:31;17.40;99.90
56374;DHT22;58212;47.034;7.376;2023-03-23T11:00:01;17.40;99.90
56374;DHT22;58212;47.034;7.376;2023-03-23T11:02:37;17.30;99.90
56374;DHT22;58212;47.034;7.376;2023-03-23T11:05:16;17.40;99.90
56374;DHT22;58212;47.034;7.376;2023-03-23T11:07:49;17.40;99.90
56374;DHT22;58212;47.034;7.376;2023-03-23T11:10:21;17.40;99.90
56374;DHT22;58212;47.034;7.376;2023-03-23T11:12:49;17.20;99.90
56374;DHT22;58212;47.034;7.376;2023-03-23T11:15:26;17.20;99.90
56374;DHT22;58212;47.034;7.376;2023-03-23T11:17:58;17.30;99.90
56374;DHT22;58212;47.034;7.376;2023-03-23T11:20:29;17.40;99.90
56374;DHT22;58212;47.034;7.376;2023-03-23T11:22:57;17.60;99.90
56374;DHT22;58212;47.034;7.376;2023-03-23T11:25:27;17.70;99.90
56374;DHT22;58212;47.034;7.376;2023-03-23T11:27:54;17.70;99.90
56374;DHT22;58212;47.034;7.376;2023-03-23T11:30:26;17.60;99.90
56374;DHT22;58212;47.034;7.376;2023-03-23T11:32:55;17.60;99.90
56374;DHT22;58212;47.034;7.376;2023-03-23T11:35:28;17.60;99.90
56374;DHT22;58212;47.034;7.376;2023-03-23T11:37:56;17.60;99.90
56374;DHT22;58212;47.034;7.376;2023-03-23T11:40:26;17.40;99.90
56374;DHT22;58212;47.034;7.376;2023-03-23T11:42:59;17.60;99.90
56374;DHT22;58212;47.034;7.376;2023-03-23T11:45:33;17.70;99.90
56374;DHT22;58212;47.034;7.376;2023-03-23T11:48:10;17.80;99.90
56374;DHT22;58212;47.034;7.376;2023-03-23T11:50:47;17.80;99.90
56374;DHT22;58212;47.034;7.376;2023-03-23T11:53:23;17.80;99.90
56374;DHT22;58212;47.034;7.376;2023-03-23T11:55:57;17.90;99.90
56374;DHT22;58212;47.034;7.376;2023-03-23T11:58:33;17.80;99.90
56374;DHT22;58212;47.034;7.376;2023-03-23T12:01:06;17.90;99.90
56374;DHT22;58212;47.034;7.376;2023-03-23T12:03:56;18.00;99.90
56374;DHT22;58212;47.034;7.376;2023-03-23T12:06:33;18.20;99.90
56374;DHT22;58212;47.034;7.376;2023-03-23T12:09:13;18.10;99.90
56374;DHT22;58212;47.034;7.376;2023-03-23T12:11:53;18.00;99.90
56374;DHT22;58212;47.034;7.376;2023-03-23T12:14:29;18.00;99.90
56374;DHT22;58212;47.034;7.376;2023-03-23T12:17:10;18.00;99.90
56374;DHT22;58212;47.034;7.376;2023-03-23T12:19:45;17.90;99.90
56374;DHT22;58212;47.034;7.376;2023-03-23T12:22:24;17.70;99.90
56374;DHT22;58212;47.034;7.376;2023-03-23T12:25:05;17.70;99.90
56374;DHT22;58212;47.034;7.376;2023-03-23T12:27:38;17.90;99.90
56374;DHT22;58212;47.034;7.376;2023-03-23T12:30:20;17.90;99.90
56374;DHT22;58212;47.034;7.376;2023-03-23T12:33:04;17.80;99.90
56374;DHT22;58212;47.034;7.376;2023-03-23T12:35:43;17.80;99.90
56374;DHT22;58212;47.034;7.376;2023-03-23T12:41:18;17.20;99.90
56374;DHT22;58212;47.034;7.376;2023-03-23T12:43:53;17.20;99.90
56374;DHT22;58212;47.034;7.376;2023-03-23T12:46:40;17.10;99.90
56374;DHT22;58212;47.034;7.376;2023-03-23T12:49:13;17.20;99.90
56374;DHT22;58212;47.034;7.376;2023-03-23T12:51:49;17.30;99.90
56374;DHT22;58212;47.034;7.376;2023-03-23T12:54:25;17.20;99.90
56374;DHT22;58212;47.034;7.376;2023-03-23T12:56:59;17.30;99.90
56374;DHT22;58212;47.034;7.376;2023-03-23T12:59:33;17.10;99.90
56374;DHT22;58212;47.034;7.376;2023-03-23T13:02:13;16.90;99.90
56374;DHT22;58212;47.034;7.376;2023-03-23T13:04:46;16.70;99.90
56374;DHT22;58212;47.034;7.376;2023-03-23T13:07:18;16.60;99.90
56374;DHT22;58212;47.034;7.376;2023-03-23T13:09:52;16.60;99.90
56374;DHT22;58212;47.034;7.376;2023-03-23T13:12:20;16.60;99.90
56374;DHT22;58212;47.034;7.376;2023-03-23T13:14:56;16.70;99.90
56374;DHT22;58212;47.034;7.376;2023-03-23T13:17:33;16.70;99.90
56374;DHT22;58212;47.034;7.376;2023-03-23T13:20:20;16.60;99.90
56374;DHT22;58212;47.034;7.376;2023-03-23T13:22:55;16.70;99.90
56374;DHT22;58212;47.034;7.376;2023-03-23T13:25:35;16.70;99.90
56374;DHT22;58212;47.034;7.376;2023-03-23T13:28:05;16.70;99.90
56374;DHT22;58212;47.034;7.376;2023-03-23T13:30:31;16.70;99.90
56374;DHT22;58212;47.034;7.376;2023-03-23T13:33:04;16.60;99.90
56374;DHT22;58212;47.034;7.376;2023-03-23T13:35:36;16.50;99.90
56374;DHT22;58212;47.034;7.376;2023-03-23T13:38:13;16.60;99.90
56374;DHT22;58212;47.034;7.376;2023-03-23T13:40:46;16.70;99.90
56374;DHT22;58212;47.034;7.376;2023-03-23T13:43:25;16.70;99.90
56374;DHT22;58212;47.034;7.376;2023-03-23T13:45:53;16.80;99.90
56374;DHT22;58212;47.034;7.376;2023-03-23T13:48:24;17.00;99.90
56374;DHT22;58212;47.034;7.376;2023-03-23T13:50:55;17.00;99.90
56374;DHT22;58212;47.034;7.376;2023-03-23T13:53:25;16.90;99.90
56374;DHT22;58212;47.034;7.376;2023-03-23T13:56:13;16.70;99.90
56374;DHT22;58212;47.034;7.376;2023-03-23T13:58:46;16.80;99.90
56374;DHT22;58212;47.034;7.376;2023-03-23T14:01:17;17.00;99.90
56374;DHT22;58212;47.034;7.376;2023-03-23T14:03:47;17.00;99.90
56374;DHT22;58212;47.034;7.376;2023-03-23T14:06:18;17.00;99.90
56374;DHT22;58212;47.034;7.376;2023-03-23T14:09:07;17.10;99.90
56374;DHT22;58212;47.034;7.376;2023-03-23T14:11:48;17.20;99.90
56374;DHT22;58212;47.034;7.376;2023-03-23T14:14:22;17.10;99.90
56374;DHT22;58212;47.034;7.376;2023-03-23T14:16:51;17.00;99.90
56374;DHT22;58212;47.034;7.376;2023-03-23T14:19:22;16.90;99.90
56374;DHT22;58212;47.034;7.376;2023-03-23T14:21:52;16.80;99.90
56374;DHT22;58212;47.034;7.376;2023-03-23T14:24:45;16.80;99.90
56374;DHT22;58212;47.034;7.376;2023-03-23T14:27:15;16.80;99.90
56374;DHT22;58212;47.034;7.376;2023-03-23T14:29:43;16.80;99.90
56374;DHT22;58212;47.034;7.376;2023-03-23T14:32:15;16.90;99.90
56374;DHT22;58212;47.034;7.376;2023-03-23T14:34:43;17.00;99.90
56374;DHT22;58212;47.034;7.376;2023-03-23T14:37:15;16.90;99.90
56374;DHT22;58212;47.034;7.376;2023-03-23T14:39:47;17.00;99.90
56374;DHT22;58212;47.034;7.376;2023-03-23T14:42:19;16.80;99.90
56374;DHT22;58212;47.034;7.376;2023-03-23T14:44:48;16.90;99.90
56374;DHT22;58212;47.034;7.376;2023-03-23T14:47:19;16.90;99.90
56374;DHT22;58212;47.034;7.376;2023-03-23T14:49:47;16.70;99.90
56374;DHT22;58212;47.034;7.376;2023-03-23T14:52:16;16.60;99.90
56374;DHT22;58212;47.034;7.376;2023-03-23T14:54:45;16.50;99.90
56374;DHT22;58212;47.034;7.376;2023-03-23T14:57:14;16.40;99.90
56374;DHT22;58212;47.034;7.376;2023-03-23T14:59:44;16.40;99.90
56374;DHT22;58212;47.034;7.376;2023-03-23T15:02:14;16.60;99.90
56374;DHT22;58212;47.034;7.376;2023-03-23T15:04:43;16.70;99.90
56374;DHT22;58212;47.034;7.376;2023-03-23T15:07:12;16.60;99.90
56374;DHT22;58212;47.034;7.376;2023-03-23T15:09:45;16.60;99.90
56374;DHT22;58212;47.034;7.376;2023-03-23T15:12:20;16.70;99.90
56374;DHT22;58212;47.034;7.376;2023-03-23T15:14:53;16.60;99.90
56374;DHT22;58212;47.034;7.376;2023-03-23T15:17:22;16.60;99.90
56374;DHT22;58212;47.034;7.376;2023-03-23T15:19:51;16.60;99.90
56374;DHT22;58212;47.034;7.376;2023-03-23T15:22:22;16.60;99.90
56374;DHT22;58212;47.034;7.376;2023-03-23T15:24:51;16.40;99.90
56374;DHT22;58212;47.034;7.376;2023-03-23T15:27:28;16.40;99.90
56374;DHT22;58212;47.034;7.376;2023-03-23T15:29:59;16.30;99.90
56374;DHT22;58212;47.034;7.376;2023-03-23T15:32:38;16.50;99.90
56374;DHT22;58212;47.034;7.376;2023-03-23T15:35:12;16.40;99.90
56374;DHT22;58212;47.034;7.376;2023-03-23T15:37:43;16.50;99.90
56374;DHT22;58212;47.034;7.376;2023-03-23T15:40:15;16.50;99.90
56374;DHT22;58212;47.034;7.376;2023-03-23T15:42:45;16.60;99.90
56374;DHT22;58212;47.034;7.376;2023-03-23T15:45:31;16.50;99.90
56374;DHT22;58212;47.034;7.376;2023-03-23T15:48:08;16.30;99.90
56374;DHT22;58212;47.034;7.376;2023-03-23T15:50:40;16.40;99.90
56374;DHT22;58212;47.034;7.376;2023-03-23T15:53:20;16.50;99.90
56374;DHT22;58212;47.034;7.376;2023-03-23T15:55:48;16.50;99.90
56374;DHT22;58212;47.034;7.376;2023-03-23T15:58:15;16.50;99.90
56374;DHT22;58212;47.034;7.376;2023-03-23T16:00:45;16.40;99.90
56374;DHT22;58212;47.034;7.376;2023-03-23T16:03:14;16.30;99.90
56374;DHT22;58212;47.034;7.376;2023-03-23T16:05:44;16.30;99.90
56374;DHT22;58212;47.034;7.376;2023-03-23T16:08:11;16.20;99.90
56374;DHT22;58212;47.034;7.376;2023-03-23T16:10:39;16.20;99.90
56374;DHT22;58212;47.034;7.376;2023-03-23T16:13:06;16.20;99.90
56374;DHT22;58212;47.034;7.376;2023-03-23T16:15:33;16.20;99.90
56374;DHT22;58212;47.034;7.376;2023-03-23T16:18:01;16.10;99.90
56374;DHT22;58212;47.034;7.376;2023-03-23T16:20:29;16.10;99.90
56374;DHT22;58212;47.034;7.376;2023-03-23T16:22:58;16.10;99.90
56374;DHT22;58212;47.034;7.376;2023-03-23T16:25:25;16.00;99.90
56374;DHT22;58212;47.034;7.376;2023-03-23T16:27:53;16.00;99.90